»·PEaware :: AAY2307 KPDX-KMFR

AAY2307 :: KPDX-KMFR

FLIGHT INFORMATION

Flight Status: Arrived
Operator:
Allegiant Air
More flights by this operator :: More flights under this callsign
Pilot: Mitchell L. (19304)
Aircraft: MCDONNELL-DOUGLAS MD-88
(MD88)
More flights by this aircraft type
Origin: KPDX Portland Intl
United States
Destination: KMFR Rogue Valley Intl-Medford
United States
More flights between these airports :: More routes between these airports
Route: MINNE5 MINNE EUG OED
File this flight plan on PilotEdge
Remarks:
Altitude:
(Current/Filed)
21,000ft
Speed:
(Current/Filed)
450kts
Departed: 10-Jul-18 06:38 PM
Arrived: 10-Jul-18 07:21 PM
Distance/Time
Traveled:
194nm/0:43
Distance/Time
To Go:
Arrived

Flight Plot

Page will automatically refresh every two minutes.

Flight plan parsing failed; only flown route is shown


Map Options




Map Legend


Flown Route
Filed Route
Departure Airport
Arrival Airport
Navaid (VOR, NDB)
Fix

Horizontal Profiles

Position Reports

Time Latitude Longitude Heading Altitude Ground
Speed
10-Jul-18 17:55 45.590553 -122.599902 157 35ft 0kts
10-Jul-18 17:56 45.590553 -122.599902 157 35ft 0kts
10-Jul-18 17:57 45.590553 -122.599902 157 35ft 0kts
10-Jul-18 17:58 45.590553 -122.599902 157 35ft 0kts
10-Jul-18 17:59 45.590553 -122.599902 157 35ft 0kts
10-Jul-18 18:00 45.590553 -122.599902 157 35ft 0kts
10-Jul-18 18:01 45.590553 -122.599902 157 35ft 0kts
10-Jul-18 18:02 45.590553 -122.599902 157 35ft 0kts
10-Jul-18 18:03 45.590553 -122.599902 157 35ft 0kts
10-Jul-18 18:04 45.590553 -122.599902 157 35ft 0kts
10-Jul-18 18:05 45.590553 -122.599902 157 35ft 0kts
10-Jul-18 18:06 45.590553 -122.599902 157 35ft 0kts
10-Jul-18 18:07 45.590553 -122.599902 157 35ft 0kts
10-Jul-18 18:08 45.590553 -122.599902 157 35ft 0kts
10-Jul-18 18:09 45.590553 -122.599902 157 35ft 0kts
10-Jul-18 18:10 45.590553 -122.599902 157 35ft 0kts
10-Jul-18 18:11 45.590553 -122.599902 157 35ft 0kts
10-Jul-18 18:12 45.590553 -122.599902 157 35ft 0kts
10-Jul-18 18:13 45.590553 -122.599902 157 35ft 0kts
10-Jul-18 18:14 45.590553 -122.599902 157 35ft 0kts
10-Jul-18 18:15 45.590553 -122.599902 157 35ft 0kts
10-Jul-18 18:16 45.590553 -122.599902 157 35ft 0kts
10-Jul-18 18:17 45.590553 -122.599902 157 35ft 0kts
10-Jul-18 18:18 45.590553 -122.599902 157 35ft 0kts
10-Jul-18 18:19 45.590553 -122.599902 157 35ft 0kts
10-Jul-18 18:20 45.590553 -122.599902 157 35ft 0kts
10-Jul-18 18:21 45.590553 -122.599902 157 35ft 0kts
10-Jul-18 18:22 45.590747 -122.600014 157 35ft 2kts
10-Jul-18 18:23 45.591259 -122.599939 223 35ft 2kts
10-Jul-18 18:24 45.591402 -122.599425 268 35ft 0kts
10-Jul-18 18:25 45.591402 -122.599425 268 35ft 0kts
10-Jul-18 18:26 45.591402 -122.599425 268 35ft 0kts
10-Jul-18 18:27 45.591402 -122.599425 268 35ft 0kts
10-Jul-18 18:28 45.591402 -122.599425 268 35ft 0kts
10-Jul-18 18:29 45.591396 -122.599542 265 35ft 1kts
10-Jul-18 18:30 45.590919 -122.600949 216 35ft 6kts
10-Jul-18 18:31 45.588830 -122.601946 130 35ft 11kts
10-Jul-18 18:32 45.587207 -122.597886 118 35ft 15kts
10-Jul-18 18:33 45.584888 -122.591911 118 35ft 20kts
10-Jul-18 18:34 45.582283 -122.585190 118 35ft 24kts
10-Jul-18 18:35 45.581634 -122.583751 143 35ft 0kts
10-Jul-18 18:36 45.581634 -122.583751 143 35ft 0kts
10-Jul-18 18:37 45.581378 -122.583616 174 35ft 3kts
10-Jul-18 18:38 45.580946 -122.584948 295 35ft 7kts
10-Jul-18 18:39 45.593095 -122.617016 297 631ft 170kts
10-Jul-18 18:40 45.621217 -122.683425 300 2149ft 228kts
10-Jul-18 18:41 45.654692 -122.764934 300 4301ft 257kts
10-Jul-18 18:42 45.668636 -122.858629 244 5858ft 320kts
10-Jul-18 18:43 45.625518 -122.928189 197 10193ft 299kts
10-Jul-18 18:44 45.553736 -122.932457 184 12045ft 333kts
10-Jul-18 18:45 45.474019 -122.939758 187 14600ft 350kts
10-Jul-18 18:46 45.385418 -122.949763 188 17285ft 359kts
10-Jul-18 18:47 45.289220 -122.960950 188 19174ft 385kts
10-Jul-18 18:48 45.185894 -122.976300 194 20858ft 403kts
10-Jul-18 18:49 45.080463 -123.001682 193 21239ft 410kts
10-Jul-18 18:50 44.974572 -123.026212 191 21223ft 405kts
10-Jul-18 18:51 44.877145 -123.048666 191 21219ft 406kts
10-Jul-18 18:52 44.768540 -123.073731 191 21220ft 409kts
10-Jul-18 18:53 44.659969 -123.098797 191 21225ft 410kts
10-Jul-18 18:54 44.547862 -123.124681 191 21228ft 412kts
10-Jul-18 18:55 44.435436 -123.150638 191 21225ft 412kts
10-Jul-18 18:56 44.323039 -123.176592 191 21215ft 412kts
10-Jul-18 18:57 44.211404 -123.202371 191 21212ft 412kts
10-Jul-18 18:58 44.101514 -123.220140 179 21211ft 415kts
10-Jul-18 18:59 43.990966 -123.198214 174 21210ft 417kts
10-Jul-18 19:00 43.885484 -123.178055 174 21209ft 417kts
10-Jul-18 19:01 43.773091 -123.156850 174 21207ft 417kts
10-Jul-18 19:02 43.661138 -123.135749 174 20225ft 412kts
10-Jul-18 19:03 43.553629 -123.115481 174 18242ft 392kts
10-Jul-18 19:04 43.450870 -123.096107 173 16276ft 376kts
10-Jul-18 19:05 43.350141 -123.077118 173 14284ft 363kts
10-Jul-18 19:06 43.253870 -123.058969 173 12322ft 352kts
10-Jul-18 19:07 43.163655 -123.041946 173 12055ft 334kts
10-Jul-18 19:08 43.073777 -123.024982 173 12056ft 338kts
10-Jul-18 19:09 42.983364 -123.007948 173 12046ft 335kts
10-Jul-18 19:10 42.894058 -122.991124 173 12026ft 331kts
10-Jul-18 19:11 42.805114 -122.974335 173 12007ft 331kts
10-Jul-18 19:12 42.714087 -122.957163 173 11966ft 331kts
10-Jul-18 19:13 42.628520 -122.914305 154 10173ft 329kts
10-Jul-18 19:14 42.548865 -122.858029 154 8593ft 302kts
10-Jul-18 19:15 42.480828 -122.808965 154 7072ft 266kts
10-Jul-18 19:16 42.417545 -122.763114 154 5171ft 250kts
10-Jul-18 19:17 42.360949 -122.722193 155 4175ft 214kts
10-Jul-18 19:18 42.313434 -122.740040 241 4476ft 183kts
10-Jul-18 19:19 42.304872 -122.809071 270 3161ft 187kts
10-Jul-18 19:20 42.327613 -122.848876 339 1941ft 124kts
10-Jul-18 19:21 42.358119 -122.864380 334 1532ft 118kts
10-Jul-18 19:22 42.380321 -122.876136 331 1339ft 19kts
10-Jul-18 19:23 42.380519 -122.877142 245 1339ft 0kts
10-Jul-18 19:24 42.380519 -122.877142 245 1339ft 0kts
10-Jul-18 19:25 42.380302 -122.877500 210 1339ft 4kts
10-Jul-18 19:26 42.377730 -122.876362 159 1339ft 15kts
10-Jul-18 19:27 42.372367 -122.873508 159 1339ft 26kts
10-Jul-18 19:28 42.369370 -122.872633 222 1339ft 0kts
10-Jul-18 19:29 42.369521 -122.873079 290 1339ft 3kts
10-Jul-18 19:30 42.369420 -122.873628 247 1339ft 0kts
10-Jul-18 19:31 42.369420 -122.873627 247 1339ft 0kts
10-Jul-18 19:32 42.369420 -122.873627 247 1339ft 0kts
10-Jul-18 19:33 42.369420 -122.873627 247 1339ft 0kts
10-Jul-18 19:34 42.369420 -122.873627 247 1339ft 0kts
10-Jul-18 19:35 42.369420 -122.873627 247 1339ft 0kts

Navigation Log

Ident Type
Flight plan parsing failed, navigation log unavailable